sensor_id;sensor_type;location;lat;lon;timestamp;P1;durP1;ratioP1;P2;durP2;ratioP2
73421;SDS011;61637;47.760;-122.022;2023-02-24T00:00:01;16.5;;;15.2;;
73421;SDS011;61637;47.760;-122.022;2023-02-24T00:02:03;16.7;;;15.4;;
73421;SDS011;61637;47.760;-122.022;2023-02-24T00:04:01;16.3;;;15.0;;
73421;SDS011;61637;47.760;-122.022;2023-02-24T00:06:01;16.2;;;14.9;;
73421;SDS011;61637;47.760;-122.022;2023-02-24T00:08:01;16.2;;;14.9;;
73421;SDS011;61637;47.760;-122.022;2023-02-24T00:10:02;15.7;;;14.4;;
73421;SDS011;61637;47.760;-122.022;2023-02-24T00:12:03;15.3;;;14.1;;
73421;SDS011;61637;47.760;-122.022;2023-02-24T00:14:03;16.1;;;14.8;;
73421;SDS011;61637;47.760;-122.022;2023-02-24T00:16:03;15.4;;;14.1;;
73421;SDS011;61637;47.760;-122.022;2023-02-24T00:18:01;17.0;;;15.6;;
73421;SDS011;61637;47.760;-122.022;2023-02-24T00:20:01;15.8;;;14.4;;
73421;SDS011;61637;47.760;-122.022;2023-02-24T00:22:03;16.7;;;15.3;;
73421;SDS011;61637;47.760;-122.022;2023-02-24T00:24:01;16.5;;;15.2;;
73421;SDS011;61637;47.760;-122.022;2023-02-24T00:26:01;16.7;;;15.3;;
73421;SDS011;61637;47.760;-122.022;2023-02-24T00:28:01;16.4;;;15.1;;
73421;SDS011;61637;47.760;-122.022;2023-02-24T00:30:02;17.3;;;15.9;;
73421;SDS011;61637;47.760;-122.022;2023-02-24T00:32:01;17.1;;;15.7;;
73421;SDS011;61637;47.760;-122.022;2023-02-24T00:34:01;16.5;;;15.2;;
73421;SDS011;61637;47.760;-122.022;2023-02-24T00:36:07;16.7;;;15.4;;
73421;SDS011;61637;47.760;-122.022;2023-02-24T00:38:01;16.7;;;15.4;;
73421;SDS011;61637;47.760;-122.022;2023-02-24T00:40:01;16.5;;;15.1;;
73421;SDS011;61637;47.760;-122.022;2023-02-24T00:42:04;17.0;;;15.7;;
73421;SDS011;61637;47.760;-122.022;2023-02-24T00:44:03;16.4;;;15.0;;
73421;SDS011;61637;47.760;-122.022;2023-02-24T00:46:01;16.9;;;15.5;;
73421;SDS011;61637;47.760;-122.022;2023-02-24T00:48:01;16.0;;;14.7;;
73421;SDS011;61637;47.760;-122.022;2023-02-24T00:50:01;17.1;;;15.7;;
73421;SDS011;61637;47.760;-122.022;2023-02-24T00:52:01;16.8;;;15.4;;
73421;SDS011;61637;47.760;-122.022;2023-02-24T00:54:02;16.5;;;15.1;;
73421;SDS011;61637;47.760;-122.022;2023-02-24T00:56:01;15.5;;;14.2;;
73421;SDS011;61637;47.760;-122.022;2023-02-24T00:58:01;16.8;;;15.4;;
73421;SDS011;61637;47.760;-122.022;2023-02-24T01:00:02;16.0;;;14.7;;
73421;SDS011;61637;47.760;-122.022;2023-02-24T01:02:02;16.3;;;14.9;;
73421;SDS011;61637;47.760;-122.022;2023-02-24T01:04:03;16.2;;;14.9;;
73421;SDS011;61637;47.760;-122.022;2023-02-24T01:06:02;16.3;;;14.8;;
73421;SDS011;61637;47.760;-122.022;2023-02-24T01:08:01;16.6;;;15.2;;
73421;SDS011;61637;47.760;-122.022;2023-02-24T01:10:01;16.0;;;14.6;;
73421;SDS011;61637;47.760;-122.022;2023-02-24T01:12:01;16.4;;;15.0;;
73421;SDS011;61637;47.760;-122.022;2023-02-24T01:14:03;16.8;;;15.5;;
73421;SDS011;61637;47.760;-122.022;2023-02-24T01:16:01;16.2;;;14.9;;
73421;SDS011;61637;47.760;-122.022;2023-02-24T01:18:01;16.6;;;15.2;;
73421;SDS011;61637;47.760;-122.022;2023-02-24T01:20:01;15.5;;;14.2;;
73421;SDS011;61637;47.760;-122.022;2023-02-24T01:22:04;16.2;;;14.9;;
73421;SDS011;61637;47.760;-122.022;2023-02-24T01:24:02;16.6;;;15.3;;
73421;SDS011;61637;47.760;-122.022;2023-02-24T01:26:02;16.7;;;15.4;;
73421;SDS011;61637;47.760;-122.022;2023-02-24T01:28:01;16.8;;;15.4;;
73421;SDS011;61637;47.760;-122.022;2023-02-24T01:30:02;16.6;;;15.2;;
73421;SDS011;61637;47.760;-122.022;2023-02-24T01:32:01;16.1;;;14.8;;
73421;SDS011;61637;47.760;-122.022;2023-02-24T01:34:01;15.5;;;14.2;;
73421;SDS011;61637;47.760;-122.022;2023-02-24T01:36:08;16.2;;;14.9;;
73421;SDS011;61637;47.760;-122.022;2023-02-24T01:38:01;15.6;;;14.3;;
73421;SDS011;61637;47.760;-122.022;2023-02-24T01:40:01;15.6;;;14.3;;
73421;SDS011;61637;47.760;-122.022;2023-02-24T01:42:03;16.5;;;15.1;;
73421;SDS011;61637;47.760;-122.022;2023-02-24T01:44:04;15.3;;;14.0;;
73421;SDS011;61637;47.760;-122.022;2023-02-24T01:46:01;16.6;;;15.3;;
73421;SDS011;61637;47.760;-122.022;2023-02-24T01:48:04;14.9;;;13.6;;
73421;SDS011;61637;47.760;-122.022;2023-02-24T01:50:01;15.8;;;14.5;;
73421;SDS011;61637;47.760;-122.022;2023-02-24T01:52:07;15.4;;;14.1;;
73421;SDS011;61637;47.760;-122.022;2023-02-24T01:54:02;16.4;;;15.1;;
73421;SDS011;61637;47.760;-122.022;2023-02-24T01:56:01;15.7;;;14.4;;
73421;SDS011;61637;47.760;-122.022;2023-02-24T01:58:05;15.3;;;14.0;;
73421;SDS011;61637;47.760;-122.022;2023-02-24T02:00:05;15.5;;;14.1;;
73421;SDS011;61637;47.760;-122.022;2023-02-24T02:02:03;15.8;;;14.5;;
73421;SDS011;61637;47.760;-122.022;2023-02-24T02:04:04;15.6;;;14.2;;
73421;SDS011;61637;47.760;-122.022;2023-02-24T02:06:04;15.3;;;14.0;;
73421;SDS011;61637;47.760;-122.022;2023-02-24T02:08:02;15.3;;;14.0;;
73421;SDS011;61637;47.760;-122.022;2023-02-24T02:10:01;14.9;;;13.7;;
73421;SDS011;61637;47.760;-122.022;2023-02-24T02:12:01;16.5;;;15.2;;
73421;SDS011;61637;47.760;-122.022;2023-02-24T02:14:01;15.7;;;14.4;;
73421;SDS011;61637;47.760;-122.022;2023-02-24T02:16:10;15.2;;;14.0;;
73421;SDS011;61637;47.760;-122.022;2023-02-24T02:18:06;15.3;;;14.0;;
73421;SDS011;61637;47.760;-122.022;2023-02-24T02:20:16;16.1;;;14.8;;
73421;SDS011;61637;47.760;-122.022;2023-02-24T02:22:06;16.2;;;14.9;;
73421;SDS011;61637;47.760;-122.022;2023-02-24T02:24:14;15.8;;;14.4;;
73421;SDS011;61637;47.760;-122.022;2023-02-24T02:26:18;15.7;;;14.4;;
73421;SDS011;61637;47.760;-122.022;2023-02-24T02:30:17;16.3;;;14.9;;
73421;SDS011;61637;47.760;-122.022;2023-02-24T02:34:08;15.9;;;14.5;;
73421;SDS011;61637;47.760;-122.022;2023-02-24T02:36:06;16.3;;;14.9;;
73421;SDS011;61637;47.760;-122.022;2023-02-24T02:38:09;16.1;;;14.8;;
73421;SDS011;61637;47.760;-122.022;2023-02-24T02:40:08;16.4;;;15.0;;
73421;SDS011;61637;47.760;-122.022;2023-02-24T02:42:07;15.2;;;13.9;;
73421;SDS011;61637;47.760;-122.022;2023-02-24T02:44:07;15.7;;;14.4;;
73421;SDS011;61637;47.760;-122.022;2023-02-24T02:46:07;15.5;;;14.2;;
73421;SDS011;61637;47.760;-122.022;2023-02-24T02:48:06;15.8;;;14.5;;
73421;SDS011;61637;47.760;-122.022;2023-02-24T02:50:04;15.4;;;14.0;;
73421;SDS011;61637;47.760;-122.022;2023-02-24T02:52:05;15.4;;;14.1;;
73421;SDS011;61637;47.760;-122.022;2023-02-24T02:54:05;15.2;;;13.9;;
73421;SDS011;61637;47.760;-122.022;2023-02-24T02:56:07;15.3;;;14.0;;
73421;SDS011;61637;47.760;-122.022;2023-02-24T02:58:03;14.5;;;13.3;;
73421;SDS011;61637;47.760;-122.022;2023-02-24T03:00:05;14.8;;;13.4;;
73421;SDS011;61637;47.760;-122.022;2023-02-24T03:02:03;14.5;;;13.3;;
73421;SDS011;61637;47.760;-122.022;2023-02-24T03:04:03;15.4;;;14.1;;
73421;SDS011;61637;47.760;-122.022;2023-02-24T03:06:04;16.7;;;15.3;;
73421;SDS011;61637;47.760;-122.022;2023-02-24T03:08:02;14.8;;;13.5;;
73421;SDS011;61637;47.760;-122.022;2023-02-24T03:10:07;15.2;;;13.9;;
73421;SDS011;61637;47.760;-122.022;2023-02-24T03:12:04;15.3;;;14.0;;
73421;SDS011;61637;47.760;-122.022;2023-02-24T03:14:01;15.1;;;13.8;;
73421;SDS011;61637;47.760;-122.022;2023-02-24T03:16:02;14.0;;;12.8;;
73421;SDS011;61637;47.760;-122.022;2023-02-24T03:18:06;13.4;;;12.1;;
73421;SDS011;61637;47.760;-122.022;2023-02-24T03:20:07;14.4;;;13.1;;
73421;SDS011;61637;47.760;-122.022;2023-02-24T03:22:03;13.5;;;12.3;;
73421;SDS011;61637;47.760;-122.022;2023-02-24T03:24:03;13.7;;;12.4;;
73421;SDS011;61637;47.760;-122.022;2023-02-24T03:26:06;13.6;;;12.5;;
73421;SDS011;61637;47.760;-122.022;2023-02-24T03:28:06;14.1;;;12.9;;
73421;SDS011;61637;47.760;-122.022;2023-02-24T03:30:05;14.6;;;13.4;;
73421;SDS011;61637;47.760;-122.022;2023-02-24T03:32:05;13.1;;;11.9;;
73421;SDS011;61637;47.760;-122.022;2023-02-24T03:34:06;14.5;;;13.2;;
73421;SDS011;61637;47.760;-122.022;2023-02-24T03:36:02;13.5;;;12.3;;
73421;SDS011;61637;47.760;-122.022;2023-02-24T03:38:02;13.5;;;12.3;;
73421;SDS011;61637;47.760;-122.022;2023-02-24T03:40:04;13.1;;;12.0;;
73421;SDS011;61637;47.760;-122.022;2023-02-24T03:42:05;13.5;;;12.3;;
73421;SDS011;61637;47.760;-122.022;2023-02-24T03:44:01;13.3;;;12.1;;
73421;SDS011;61637;47.760;-122.022;2023-02-24T03:46:04;14.1;;;12.9;;
73421;SDS011;61637;47.760;-122.022;2023-02-24T03:48:02;13.6;;;12.5;;
73421;SDS011;61637;47.760;-122.022;2023-02-24T03:50:01;14.1;;;12.7;;
73421;SDS011;61637;47.760;-122.022;2023-02-24T03:52:09;13.6;;;12.4;;
73421;SDS011;61637;47.760;-122.022;2023-02-24T03:54:08;14.2;;;12.9;;
73421;SDS011;61637;47.760;-122.022;2023-02-24T03:56:11;13.9;;;12.7;;
73421;SDS011;61637;47.760;-122.022;2023-02-24T03:58:10;13.5;;;12.2;;
73421;SDS011;61637;47.760;-122.022;2023-02-24T04:00:06;13.9;;;12.7;;
73421;SDS011;61637;47.760;-122.022;2023-02-24T04:02:06;13.6;;;12.4;;
73421;SDS011;61637;47.760;-122.022;2023-02-24T04:04:06;14.7;;;13.5;;
73421;SDS011;61637;47.760;-122.022;2023-02-24T04:06:08;14.7;;;13.4;;
73421;SDS011;61637;47.760;-122.022;2023-02-24T04:08:03;14.4;;;13.1;;
73421;SDS011;61637;47.760;-122.022;2023-02-24T04:10:07;13.9;;;12.7;;
73421;SDS011;61637;47.760;-122.022;2023-02-24T04:12:07;14.2;;;12.9;;
73421;SDS011;61637;47.760;-122.022;2023-02-24T04:14:04;14.9;;;13.6;;
73421;SDS011;61637;47.760;-122.022;2023-02-24T04:16:07;14.2;;;12.9;;
73421;SDS011;61637;47.760;-122.022;2023-02-24T04:18:05;13.6;;;12.4;;
73421;SDS011;61637;47.760;-122.022;2023-02-24T04:20:05;12.8;;;11.7;;
73421;SDS011;61637;47.760;-122.022;2023-02-24T04:22:02;13.9;;;12.7;;
73421;SDS011;61637;47.760;-122.022;2023-02-24T04:24:04;13.0;;;11.9;;
73421;SDS011;61637;47.760;-122.022;2023-02-24T04:26:02;13.5;;;12.3;;
73421;SDS011;61637;47.760;-122.022;2023-02-24T04:28:02;13.8;;;12.6;;
73421;SDS011;61637;47.760;-122.022;2023-02-24T04:30:02;14.3;;;13.0;;
73421;SDS011;61637;47.760;-122.022;2023-02-24T04:32:04;13.3;;;12.1;;
73421;SDS011;61637;47.760;-122.022;2023-02-24T04:34:01;12.4;;;11.3;;
73421;SDS011;61637;47.760;-122.022;2023-02-24T04:36:01;13.1;;;11.9;;
73421;SDS011;61637;47.760;-122.022;2023-02-24T04:38:01;12.9;;;11.7;;
73421;SDS011;61637;47.760;-122.022;2023-02-24T04:40:01;12.7;;;11.5;;
73421;SDS011;61637;47.760;-122.022;2023-02-24T04:42:01;13.2;;;12.1;;
73421;SDS011;61637;47.760;-122.022;2023-02-24T04:44:01;12.9;;;11.8;;
73421;SDS011;61637;47.760;-122.022;2023-02-24T04:46:01;12.3;;;11.2;;
73421;SDS011;61637;47.760;-122.022;2023-02-24T04:48:02;13.2;;;12.1;;
73421;SDS011;61637;47.760;-122.022;2023-02-24T04:50:01;12.7;;;11.5;;
73421;SDS011;61637;47.760;-122.022;2023-02-24T04:52:01;12.9;;;11.8;;
73421;SDS011;61637;47.760;-122.022;2023-02-24T04:54:01;13.0;;;11.9;;
73421;SDS011;61637;47.760;-122.022;2023-02-24T04:56:03;12.2;;;11.1;;
73421;SDS011;61637;47.760;-122.022;2023-02-24T04:58:01;12.6;;;11.4;;
73421;SDS011;61637;47.760;-122.022;2023-02-24T05:00:02;11.8;;;10.7;;
73421;SDS011;61637;47.760;-122.022;2023-02-24T05:02:01;12.5;;;11.4;;
73421;SDS011;61637;47.760;-122.022;2023-02-24T05:04:01;12.2;;;11.0;;
73421;SDS011;61637;47.760;-122.022;2023-02-24T05:06:02;12.0;;;10.9;;
73421;SDS011;61637;47.760;-122.022;2023-02-24T05:08:03;12.1;;;11.0;;
73421;SDS011;61637;47.760;-122.022;2023-02-24T05:10:01;12.3;;;11.1;;
73421;SDS011;61637;47.760;-122.022;2023-02-24T05:12:01;12.1;;;11.0;;
73421;SDS011;61637;47.760;-122.022;2023-02-24T05:14:01;10.7;;;9.7;;
73421;SDS011;61637;47.760;-122.022;2023-02-24T05:16:04;11.5;;;10.4;;
73421;SDS011;61637;47.760;-122.022;2023-02-24T05:18:04;11.7;;;10.6;;
73421;SDS011;61637;47.760;-122.022;2023-02-24T05:20:01;11.7;;;10.6;;
73421;SDS011;61637;47.760;-122.022;2023-02-24T05:22:02;11.7;;;10.6;;
73421;SDS011;61637;47.760;-122.022;2023-02-24T05:24:02;11.5;;;10.4;;
73421;SDS011;61637;47.760;-122.022;2023-02-24T05:26:03;10.6;;;9.6;;
73421;SDS011;61637;47.760;-122.022;2023-02-24T05:28:01;10.5;;;9.5;;
73421;SDS011;61637;47.760;-122.022;2023-02-24T05:30:01;10.6;;;9.6;;
73421;SDS011;61637;47.760;-122.022;2023-02-24T05:32:03;10.6;;;9.6;;
73421;SDS011;61637;47.760;-122.022;2023-02-24T05:34:04;10.9;;;9.9;;
73421;SDS011;61637;47.760;-122.022;2023-02-24T05:36:03;10.7;;;9.7;;
73421;SDS011;61637;47.760;-122.022;2023-02-24T05:38:01;11.0;;;10.0;;
73421;SDS011;61637;47.760;-122.022;2023-02-24T05:40:01;11.4;;;10.3;;
73421;SDS011;61637;47.760;-122.022;2023-02-24T05:42:02;11.5;;;8.9;;
73421;SDS011;61637;47.760;-122.022;2023-02-24T05:44:03;10.2;;;9.2;;
73421;SDS011;61637;47.760;-122.022;2023-02-24T05:46:01;9.8;;;8.9;;
73421;SDS011;61637;47.760;-122.022;2023-02-24T05:48:01;9.8;;;8.9;;
73421;SDS011;61637;47.760;-122.022;2023-02-24T05:50:01;10.1;;;9.1;;
73421;SDS011;61637;47.760;-122.022;2023-02-24T05:52:04;10.6;;;9.6;;
73421;SDS011;61637;47.760;-122.022;2023-02-24T05:54:02;10.4;;;9.4;;
73421;SDS011;61637;47.760;-122.022;2023-02-24T05:56:01;10.7;;;9.7;;
73421;SDS011;61637;47.760;-122.022;2023-02-24T05:58:01;11.3;;;10.3;;
73421;SDS011;61637;47.760;-122.022;2023-02-24T06:00:02;11.1;;;10.1;;
73421;SDS011;61637;47.760;-122.022;2023-02-24T06:02:04;10.7;;;9.7;;
73421;SDS011;61637;47.760;-122.022;2023-02-24T06:04:03;11.1;;;10.0;;
73421;SDS011;61637;47.760;-122.022;2023-02-24T06:06:02;11.0;;;10.0;;
73421;SDS011;61637;47.760;-122.022;2023-02-24T06:08:01;10.9;;;9.9;;
73421;SDS011;61637;47.760;-122.022;2023-02-24T06:10:02;11.2;;;10.2;;
73421;SDS011;61637;47.760;-122.022;2023-02-24T06:12:01;10.8;;;9.8;;
73421;SDS011;61637;47.760;-122.022;2023-02-24T06:14:02;11.8;;;10.7;;
73421;SDS011;61637;47.760;-122.022;2023-02-24T06:16:01;10.4;;;9.0;;
73421;SDS011;61637;47.760;-122.022;2023-02-24T06:18:01;10.9;;;9.8;;
73421;SDS011;61637;47.760;-122.022;2023-02-24T06:20:01;9.8;;;8.8;;
73421;SDS011;61637;47.760;-122.022;2023-02-24T06:22:01;9.7;;;8.3;;
73421;SDS011;61637;47.760;-122.022;2023-02-24T06:24:02;10.2;;;9.3;;
73421;SDS011;61637;47.760;-122.022;2023-02-24T06:26:01;10.2;;;9.2;;
73421;SDS011;61637;47.760;-122.022;2023-02-24T06:28:01;8.9;;;8.0;;
73421;SDS011;61637;47.760;-122.022;2023-02-24T06:30:01;9.7;;;8.4;;
73421;SDS011;61637;47.760;-122.022;2023-02-24T06:32:01;9.0;;;8.1;;
73421;SDS011;61637;47.760;-122.022;2023-02-24T06:34:01;10.8;;;9.4;;
73421;SDS011;61637;47.760;-122.022;2023-02-24T06:36:02;12.9;;;9.7;;
73421;SDS011;61637;47.760;-122.022;2023-02-24T06:38:01;12.1;;;10.1;;
73421;SDS011;61637;47.760;-122.022;2023-02-24T06:40:01;12.6;;;10.0;;
73421;SDS011;61637;47.760;-122.022;2023-02-24T06:42:02;11.5;;;9.6;;
73421;SDS011;61637;47.760;-122.022;2023-02-24T06:44:03;9.5;;;8.5;;
73421;SDS011;61637;47.760;-122.022;2023-02-24T06:46:01;10.1;;;8.6;;
73421;SDS011;61637;47.760;-122.022;2023-02-24T06:48:01;8.9;;;8.0;;
73421;SDS011;61637;47.760;-122.022;2023-02-24T06:50:02;10.3;;;8.7;;
73421;SDS011;61637;47.760;-122.022;2023-02-24T06:52:01;9.3;;;8.3;;
73421;SDS011;61637;47.760;-122.022;2023-02-24T06:54:01;9.2;;;8.2;;
73421;SDS011;61637;47.760;-122.022;2023-02-24T06:56:06;9.3;;;8.4;;
73421;SDS011;61637;47.760;-122.022;2023-02-24T06:58:01;9.8;;;8.3;;
73421;SDS011;61637;47.760;-122.022;2023-02-24T07:00:01;8.9;;;8.0;;
73421;SDS011;61637;47.760;-122.022;2023-02-24T07:02:01;9.0;;;8.1;;
73421;SDS011;61637;47.760;-122.022;2023-02-24T07:04:01;9.2;;;8.2;;
73421;SDS011;61637;47.760;-122.022;2023-02-24T07:06:01;9.2;;;8.3;;
73421;SDS011;61637;47.760;-122.022;2023-02-24T07:08:01;9.0;;;8.0;;
73421;SDS011;61637;47.760;-122.022;2023-02-24T07:10:01;8.9;;;8.0;;
73421;SDS011;61637;47.760;-122.022;2023-02-24T07:12:02;9.6;;;8.3;;
73421;SDS011;61637;47.760;-122.022;2023-02-24T07:14:02;9.2;;;8.3;;
73421;SDS011;61637;47.760;-122.022;2023-02-24T07:16:02;9.2;;;8.2;;
73421;SDS011;61637;47.760;-122.022;2023-02-24T07:18:01;8.8;;;7.9;;
73421;SDS011;61637;47.760;-122.022;2023-02-24T07:20:02;9.8;;;8.2;;
73421;SDS011;61637;47.760;-122.022;2023-02-24T07:22:01;9.3;;;8.4;;
73421;SDS011;61637;47.760;-122.022;2023-02-24T07:24:01;9.1;;;8.2;;
73421;SDS011;61637;47.760;-122.022;2023-02-24T07:26:06;9.6;;;8.6;;
73421;SDS011;61637;47.760;-122.022;2023-02-24T07:28:01;9.1;;;8.1;;
73421;SDS011;61637;47.760;-122.022;2023-02-24T07:30:01;9.1;;;8.2;;
73421;SDS011;61637;47.760;-122.022;2023-02-24T07:32:03;8.8;;;7.7;;
73421;SDS011;61637;47.760;-122.022;2023-02-24T07:34:02;8.7;;;7.8;;
73421;SDS011;61637;47.760;-122.022;2023-02-24T07:36:02;9.4;;;8.0;;
73421;SDS011;61637;47.760;-122.022;2023-02-24T07:38:02;8.5;;;7.6;;
73421;SDS011;61637;47.760;-122.022;2023-02-24T07:40:01;8.9;;;8.0;;
73421;SDS011;61637;47.760;-122.022;2023-02-24T07:42:01;9.1;;;8.2;;
73421;SDS011;61637;47.760;-122.022;2023-02-24T07:44:01;9.3;;;8.4;;
73421;SDS011;61637;47.760;-122.022;2023-02-24T07:46:06;9.3;;;8.4;;
73421;SDS011;61637;47.760;-122.022;2023-02-24T07:48:01;9.9;;;8.0;;
73421;SDS011;61637;47.760;-122.022;2023-02-24T07:50:01;9.4;;;8.4;;
73421;SDS011;61637;47.760;-122.022;2023-02-24T07:52:01;9.5;;;8.5;;
73421;SDS011;61637;47.760;-122.022;2023-02-24T07:54:02;9.4;;;8.4;;
73421;SDS011;61637;47.760;-122.022;2023-02-24T07:56:05;9.1;;;8.1;;
73421;SDS011;61637;47.760;-122.022;2023-02-24T07:58:01;9.3;;;8.3;;
73421;SDS011;61637;47.760;-122.022;2023-02-24T08:00:01;9.3;;;8.3;;
73421;SDS011;61637;47.760;-122.022;2023-02-24T08:02:01;9.0;;;8.0;;
73421;SDS011;61637;47.760;-122.022;2023-02-24T08:04:01;9.2;;;8.0;;
73421;SDS011;61637;47.760;-122.022;2023-02-24T08:06:01;9.6;;;7.7;;
73421;SDS011;61637;47.760;-122.022;2023-02-24T08:08:01;9.5;;;8.4;;
73421;SDS011;61637;47.760;-122.022;2023-02-24T08:10:01;9.1;;;8.1;;
73421;SDS011;61637;47.760;-122.022;2023-02-24T08:12:01;8.8;;;7.9;;
73421;SDS011;61637;47.760;-122.022;2023-02-24T08:14:02;8.9;;;7.9;;
73421;SDS011;61637;47.760;-122.022;2023-02-24T08:16:03;9.1;;;8.2;;
73421;SDS011;61637;47.760;-122.022;2023-02-24T08:18:01;9.8;;;7.8;;
73421;SDS011;61637;47.760;-122.022;2023-02-24T08:20:01;8.8;;;7.9;;
73421;SDS011;61637;47.760;-122.022;2023-02-24T08:22:01;9.0;;;8.1;;
73421;SDS011;61637;47.760;-122.022;2023-02-24T08:24:01;8.5;;;7.6;;
73421;SDS011;61637;47.760;-122.022;2023-02-24T08:26:02;10.2;;;7.6;;
73421;SDS011;61637;47.760;-122.022;2023-02-24T08:28:03;8.8;;;7.8;;
73421;SDS011;61637;47.760;-122.022;2023-02-24T08:30:01;8.8;;;7.9;;
73421;SDS011;61637;47.760;-122.022;2023-02-24T08:32:01;9.6;;;7.9;;
73421;SDS011;61637;47.760;-122.022;2023-02-24T08:34:01;8.4;;;7.5;;
73421;SDS011;61637;47.760;-122.022;2023-02-24T08:36:01;9.2;;;8.2;;
73421;SDS011;61637;47.760;-122.022;2023-02-24T08:38:03;8.8;;;7.8;;
73421;SDS011;61637;47.760;-122.022;2023-02-24T08:40:01;8.5;;;7.6;;
73421;SDS011;61637;47.760;-122.022;2023-02-24T08:42:01;9.3;;;7.9;;
73421;SDS011;61637;47.760;-122.022;2023-02-24T08:44:01;8.8;;;7.9;;
73421;SDS011;61637;47.760;-122.022;2023-02-24T08:46:05;9.0;;;8.1;;
73421;SDS011;61637;47.760;-122.022;2023-02-24T08:48:01;8.4;;;7.5;;
73421;SDS011;61637;47.760;-122.022;2023-02-24T08:50:01;10.0;;;7.9;;
73421;SDS011;61637;47.760;-122.022;2023-02-24T08:52:03;9.2;;;8.2;;
73421;SDS011;61637;47.760;-122.022;2023-02-24T08:54:03;8.8;;;7.9;;
73421;SDS011;61637;47.760;-122.022;2023-02-24T08:56:03;8.7;;;7.8;;
73421;SDS011;61637;47.760;-122.022;2023-02-24T08:58:01;9.3;;;8.4;;
73421;SDS011;61637;47.760;-122.022;2023-02-24T09:00:01;8.6;;;7.7;;
73421;SDS011;61637;47.760;-122.022;2023-02-24T09:02:03;9.0;;;7.9;;
73421;SDS011;61637;47.760;-122.022;2023-02-24T09:04:03;9.7;;;7.6;;
73421;SDS011;61637;47.760;-122.022;2023-02-24T09:06:04;8.6;;;7.1;;
73421;SDS011;61637;47.760;-122.022;2023-02-24T09:08:01;9.4;;;7.2;;
73421;SDS011;61637;47.760;-122.022;2023-02-24T09:10:02;9.0;;;7.5;;
73421;SDS011;61637;47.760;-122.022;2023-02-24T09:12:01;8.0;;;7.2;;
73421;SDS011;61637;47.760;-122.022;2023-02-24T09:14:01;8.9;;;7.4;;
73421;SDS011;61637;47.760;-122.022;2023-02-24T09:16:02;9.5;;;7.5;;
73421;SDS011;61637;47.760;-122.022;2023-02-24T09:18:01;8.7;;;7.4;;
73421;SDS011;61637;47.760;-122.022;2023-02-24T09:20:01;8.8;;;7.6;;
73421;SDS011;61637;47.760;-122.022;2023-02-24T09:22:01;9.7;;;7.4;;
73421;SDS011;61637;47.760;-122.022;2023-02-24T09:24:01;8.4;;;7.6;;
73421;SDS011;61637;47.760;-122.022;2023-02-24T09:26:01;8.5;;;7.4;;
73421;SDS011;61637;47.760;-122.022;2023-02-24T09:28:05;9.1;;;7.2;;
73421;SDS011;61637;47.760;-122.022;2023-02-24T09:30:01;9.1;;;7.7;;
73421;SDS011;61637;47.760;-122.022;2023-02-24T09:32:03;8.8;;;7.7;;
73421;SDS011;61637;47.760;-122.022;2023-02-24T09:34:01;8.8;;;7.6;;
73421;SDS011;61637;47.760;-122.022;2023-02-24T09:36:03;8.6;;;7.5;;
73421;SDS011;61637;47.760;-122.022;2023-02-24T09:38:01;8.3;;;7.4;;
73421;SDS011;61637;47.760;-122.022;2023-02-24T09:40:01;8.7;;;7.4;;
73421;SDS011;61637;47.760;-122.022;2023-02-24T09:42:01;9.7;;;8.1;;
73421;SDS011;61637;47.760;-122.022;2023-02-24T09:44:05;8.4;;;7.6;;
73421;SDS011;61637;47.760;-122.022;2023-02-24T09:46:04;9.3;;;8.3;;
73421;SDS011;61637;47.760;-122.022;2023-02-24T09:48:07;8.9;;;7.8;;
73421;SDS011;61637;47.760;-122.022;2023-02-24T09:50:07;9.1;;;8.2;;
73421;SDS011;61637;47.760;-122.022;2023-02-24T09:52:01;9.1;;;8.2;;
73421;SDS011;61637;47.760;-122.022;2023-02-24T09:54:02;10.2;;;7.8;;
73421;SDS011;61637;47.760;-122.022;2023-02-24T09:56:04;9.7;;;7.9;;
73421;SDS011;61637;47.760;-122.022;2023-02-24T09:58:06;14.5;;;9.7;;
73421;SDS011;61637;47.760;-122.022;2023-02-24T10:00:05;14.5;;;9.7;;
73421;SDS011;61637;47.760;-122.022;2023-02-24T10:02:15;18.8;;;11.7;;
73421;SDS011;61637;47.760;-122.022;2023-02-24T10:04:11;18.8;;;11.7;;
73421;SDS011;61637;47.760;-122.022;2023-02-24T10:06:07;26.1;;;14.1;;
73421;SDS011;61637;47.760;-122.022;2023-02-24T10:08:01;31.8;;;15.6;;
73421;SDS011;61637;47.760;-122.022;2023-02-24T10:10:06;28.1;;;14.0;;
73421;SDS011;61637;47.760;-122.022;2023-02-24T10:12:06;40.7;;;17.7;;
73421;SDS011;61637;47.760;-122.022;2023-02-24T10:14:04;46.7;;;20.3;;
73421;SDS011;61637;47.760;-122.022;2023-02-24T10:16:04;25.9;;;12.8;;
73421;SDS011;61637;47.760;-122.022;2023-02-24T10:18:17;27.7;;;13.3;;
73421;SDS011;61637;47.760;-122.022;2023-02-24T10:20:13;27.2;;;13.5;;
73421;SDS011;61637;47.760;-122.022;2023-02-24T10:22:06;38.1;;;18.0;;
73421;SDS011;61637;47.760;-122.022;2023-02-24T10:24:08;42.5;;;18.8;;
73421;SDS011;61637;47.760;-122.022;2023-02-24T10:26:04;47.7;;;19.4;;
73421;SDS011;61637;47.760;-122.022;2023-02-24T10:28:06;61.1;;;23.3;;
73421;SDS011;61637;47.760;-122.022;2023-02-24T10:30:05;51.9;;;20.9;;
73421;SDS011;61637;47.760;-122.022;2023-02-24T10:32:12;38.8;;;16.5;;
73421;SDS011;61637;47.760;-122.022;2023-02-24T10:34:03;28.1;;;13.8;;
73421;SDS011;61637;47.760;-122.022;2023-02-24T10:36:07;19.2;;;11.6;;
73421;SDS011;61637;47.760;-122.022;2023-02-24T10:38:02;17.6;;;10.5;;
73421;SDS011;61637;47.760;-122.022;2023-02-24T10:40:06;15.6;;;9.4;;
73421;SDS011;61637;47.760;-122.022;2023-02-24T10:42:04;13.9;;;9.4;;
73421;SDS011;61637;47.760;-122.022;2023-02-24T10:44:01;14.1;;;9.2;;
73421;SDS011;61637;47.760;-122.022;2023-02-24T10:46:02;11.4;;;8.5;;
73421;SDS011;61637;47.760;-122.022;2023-02-24T10:48:06;11.7;;;8.3;;
73421;SDS011;61637;47.760;-122.022;2023-02-24T10:50:03;11.6;;;8.4;;
73421;SDS011;61637;47.760;-122.022;2023-02-24T10:52:01;10.6;;;8.1;;
73421;SDS011;61637;47.760;-122.022;2023-02-24T10:54:09;11.7;;;8.7;;
73421;SDS011;61637;47.760;-122.022;2023-02-24T10:56:04;11.2;;;8.5;;
73421;SDS011;61637;47.760;-122.022;2023-02-24T10:58:02;13.2;;;9.4;;
73421;SDS011;61637;47.760;-122.022;2023-02-24T11:00:07;11.2;;;8.8;;
73421;SDS011;61637;47.760;-122.022;2023-02-24T11:02:14;10.6;;;8.2;;
73421;SDS011;61637;47.760;-122.022;2023-02-24T11:04:02;10.1;;;8.0;;
73421;SDS011;61637;47.760;-122.022;2023-02-24T11:06:02;9.2;;;7.9;;
73421;SDS011;61637;47.760;-122.022;2023-02-24T11:08:06;9.8;;;7.8;;
73421;SDS011;61637;47.760;-122.022;2023-02-24T11:10:04;11.5;;;7.8;;
73421;SDS011;61637;47.760;-122.022;2023-02-24T11:12:10;9.7;;;8.1;;
73421;SDS011;61637;47.760;-122.022;2023-02-24T11:14:01;10.2;;;8.2;;
73421;SDS011;61637;47.760;-122.022;2023-02-24T11:16:01;10.3;;;7.4;;
73421;SDS011;61637;47.760;-122.022;2023-02-24T11:18:02;9.4;;;7.6;;
73421;SDS011;61637;47.760;-122.022;2023-02-24T11:20:04;10.1;;;7.6;;
73421;SDS011;61637;47.760;-122.022;2023-02-24T11:22:02;11.2;;;7.5;;
73421;SDS011;61637;47.760;-122.022;2023-02-24T11:24:04;8.5;;;7.5;;
73421;SDS011;61637;47.760;-122.022;2023-02-24T11:26:09;8.5;;;7.6;;
73421;SDS011;61637;47.760;-122.022;2023-02-24T11:28:01;9.1;;;7.1;;
73421;SDS011;61637;47.760;-122.022;2023-02-24T11:30:07;8.7;;;7.3;;
73421;SDS011;61637;47.760;-122.022;2023-02-24T11:32:12;8.8;;;7.9;;
73421;SDS011;61637;47.760;-122.022;2023-02-24T11:34:07;9.3;;;7.8;;
73421;SDS011;61637;47.760;-122.022;2023-02-24T11:36:06;8.3;;;7.5;;
73421;SDS011;61637;47.760;-122.022;2023-02-24T11:38:05;8.7;;;7.7;;
73421;SDS011;61637;47.760;-122.022;2023-02-24T11:40:05;9.8;;;7.9;;
73421;SDS011;61637;47.760;-122.022;2023-02-24T11:42:07;8.6;;;7.7;;